Time;durP1;ratioP1;P1;durP2;ratioP2;P2;SDS_P1;SDS_P2;PMS_P1;PMS_P2;Temp;Humidity;BMP_temperature;BMP_pressure;BME280_temperature;BME280_humidity;BME280_pressure;Samples;Min_cycle;Max_cycle;Signal;HPM_P1;HPM_P2
2023/08/12 00:00:08;;;;;;;12.13;6.35;;;23.00;47.80;;;;;;5048729;28;20119;-68
2023/08/12 00:02:36;;;;;;;14.68;6.13;;;22.20;48.60;;;;;;5054372;28;20031;-68
2023/08/12 00:05:03;;;;;;;9.27;5.90;;;22.10;49.20;;;;;;5052840;28;20025;-68
2023/08/12 00:07:32;;;;;;;11.75;5.97;;;22.20;49.50;;;;;;5053098;28;20042;-68
2023/08/12 00:10:04;;;;;;;13.73;5.85;;;22.80;47.90;;;;;;5055795;28;20036;-67
2023/08/12 00:12:33;;;;;;;11.05;5.47;;;23.20;45.80;;;;;;5057115;28;20024;-67
2023/08/12 00:15:01;;;;;;;14.65;5.10;;;23.50;46.00;;;;;;5055951;28;20028;-68
2023/08/12 00:17:29;;;;;;;13.18;5.78;;;23.50;45.50;;;;;;5056035;28;20413;-68
2023/08/12 00:19:56;;;;;;;12.57;5.95;;;23.30;45.70;;;;;;5051206;28;20029;-68
2023/08/12 00:22:23;;;;;;;9.93;5.00;;;23.90;44.40;;;;;;5049687;28;20541;-68
2023/08/12 00:24:51;;;;;;;12.05;5.53;;;24.00;45.10;;;;;;5054354;28;20029;-69
2023/08/12 00:27:19;;;;;;;16.02;5.25;;;24.30;44.40;;;;;;5039638;28;20056;-67
2023/08/12 00:29:46;;;;;;;8.80;5.30;;;23.90;43.20;;;;;;5053207;28;20167;-70
2023/08/12 00:32:13;;;;;;;10.75;5.07;;;23.40;43.80;;;;;;5053569;28;20477;-68
2023/08/12 00:34:41;;;;;;;10.65;4.72;;;23.60;44.40;;;;;;5052139;28;20035;-69
2023/08/12 00:37:08;;;;;;;11.13;4.60;;;23.60;44.70;;;;;;5049780;28;20025;-70
2023/08/12 00:39:35;;;;;;;12.25;4.97;;;24.40;43.90;;;;;;5054088;28;20056;-68
2023/08/12 00:42:03;;;;;;;10.60;3.78;;;24.00;44.50;;;;;;5055960;28;20048;-68
2023/08/12 00:44:30;;;;;;;7.93;4.20;;;25.00;43.20;;;;;;5044947;28;20979;-68
2023/08/12 00:46:58;;;;;;;8.10;3.70;;;24.90;43.60;;;;;;5034352;28;20037;-69
2023/08/12 00:49:27;;;;;;;7.63;3.58;;;24.90;42.10;;;;;;5053165;28;20119;-69
2023/08/12 00:51:55;;;;;;;6.30;3.53;;;25.00;43.20;;;;;;5046228;28;20025;-69
2023/08/12 00:54:23;;;;;;;8.25;3.38;;;25.10;42.30;;;;;;5043024;28;20569;-69
2023/08/12 00:56:51;;;;;;;8.27;3.28;;;25.70;39.50;;;;;;5046926;28;20508;-69
2023/08/12 00:59:20;;;;;;;5.32;3.03;;;26.00;39.10;;;;;;5055807;28;20382;-69
2023/08/12 01:01:48;;;;;;;7.00;2.92;;;26.50;40.50;;;;;;5048795;28;20040;-69
2023/08/12 01:04:16;;;;;;;5.47;2.15;;;26.40;38.30;;;;;;5050187;28;20031;-68
2023/08/12 01:06:45;;;;;;;6.95;2.63;;;26.20;37.70;;;;;;5054259;28;20060;-69
2023/08/12 01:09:12;;;;;;;5.63;2.55;;;26.30;36.80;;;;;;5048702;28;20041;-68
2023/08/12 01:12:02;;;;;;;5.68;2.13;;;25.80;37.50;;;;;;5043887;28;20116;-69
2023/08/12 01:14:37;;;;;;;7.05;2.45;;;26.10;38.20;;;;;;5049031;28;20419;-69
2023/08/12 01:17:07;;;;;;;5.93;2.47;;;26.40;37.00;;;;;;5048547;28;20520;-69
2023/08/12 01:19:40;;;;;;;4.75;1.67;;;26.40;37.80;;;;;;5044827;28;20021;-69
2023/08/12 01:22:13;;;;;;;4.70;1.83;;;26.10;36.60;;;;;;5050886;28;20039;-70
2023/08/12 01:24:43;;;;;;;6.47;1.80;;;25.80;36.10;;;;;;5051964;28;20476;-68
2023/08/12 01:27:12;;;;;;;7.15;1.60;;;26.20;37.10;;;;;;5053418;28;20149;-68
2023/08/12 01:29:45;;;;;;;3.85;1.75;;;26.30;36.40;;;;;;5054005;28;20083;-68
2023/08/12 01:32:26;;;;;;;3.58;1.42;;;26.50;35.70;;;;;;5055942;28;20037;-67
2023/08/12 01:34:58;;;;;;;4.18;1.70;;;26.20;35.30;;;;;;5037461;28;20029;-68
2023/08/12 01:37:29;;;;;;;3.90;1.80;;;26.00;35.40;;;;;;5057957;28;20025;-67
2023/08/12 01:39:59;;;;;;;5.70;1.73;;;25.20;35.40;;;;;;5051661;28;20039;-68
2023/08/12 01:42:28;;;;;;;5.35;1.80;;;25.10;35.90;;;;;;5054297;28;20031;-68
2023/08/12 01:44:56;;;;;;;3.47;1.50;;;25.10;37.70;;;;;;5061544;28;20033;-68
2023/08/12 01:47:23;;;;;;;3.78;1.58;;;25.10;38.80;;;;;;5059317;28;20025;-69
2023/08/12 01:49:50;;;;;;;3.78;1.42;;;25.90;37.10;;;;;;5051225;28;20113;-69
2023/08/12 01:52:18;;;;;;;8.13;1.65;;;25.90;35.60;;;;;;5057701;28;20029;-69
2023/08/12 01:54:45;;;;;;;3.10;1.23;;;26.40;35.70;;;;;;5057387;28;20028;-69
2023/08/12 01:57:12;;;;;;;4.57;1.58;;;25.90;36.80;;;;;;5061034;28;20536;-69
2023/08/12 01:59:41;;;;;;;4.55;1.40;;;25.70;36.60;;;;;;5054333;28;20028;-69
2023/08/12 02:02:08;;;;;;;5.22;1.48;;;25.90;36.90;;;;;;5054106;28;20040;-69
2023/08/12 02:04:37;;;;;;;5.38;2.00;;;26.00;36.90;;;;;;5049668;28;20024;-69
2023/08/12 02:07:05;;;;;;;3.60;1.40;;;25.90;37.80;;;;;;5052124;28;20017;-69
2023/08/12 02:09:32;;;;;;;5.00;1.40;;;25.90;37.10;;;;;;5057985;28;20067;-68
2023/08/12 02:11:59;;;;;;;3.90;1.20;;;25.80;37.50;;;;;;5060033;28;20500;-68
2023/08/12 02:14:27;;;;;;;5.18;1.23;;;25.80;37.90;;;;;;5055604;28;20021;-66
2023/08/12 02:16:54;;;;;;;5.00;1.50;;;25.80;38.10;;;;;;5049904;28;20142;-67
2023/08/12 02:19:21;;;;;;;4.13;1.10;;;25.80;38.20;;;;;;5058221;28;20032;-68
2023/08/12 02:21:49;;;;;;;5.13;1.38;;;26.50;37.50;;;;;;5051188;28;20028;-68
2023/08/12 02:24:16;;;;;;;3.70;1.50;;;27.20;36.50;;;;;;5051952;28;20017;-68
2023/08/12 02:26:44;;;;;;;3.55;1.20;;;27.50;36.10;;;;;;5053642;28;20553;-68
2023/08/12 02:29:11;;;;;;;5.53;1.38;;;27.70;35.50;;;;;;5047144;28;20062;-69
2023/08/12 02:31:38;;;;;;;5.20;1.48;;;26.90;35.70;;;;;;5048154;28;20033;-68
2023/08/12 02:34:06;;;;;;;3.13;1.30;;;27.00;37.10;;;;;;5047388;28;20391;-68
2023/08/12 02:36:33;;;;;;;4.03;1.25;;;26.80;35.50;;;;;;5054339;28;20416;-68
2023/08/12 02:39:00;;;;;;;6.00;1.33;;;26.50;36.60;;;;;;5043862;28;20026;-68
2023/08/12 02:41:28;;;;;;;7.20;1.75;;;26.90;35.00;;;;;;5053404;28;20024;-68
2023/08/12 02:43:55;;;;;;;5.32;1.40;;;25.70;35.70;;;;;;5046944;28;20560;-69
2023/08/12 02:46:24;;;;;;;5.00;1.40;;;25.30;36.10;;;;;;5052436;28;20025;-68
2023/08/12 02:48:52;;;;;;;3.17;1.40;;;25.60;36.50;;;;;;5059904;28;20037;-68
2023/08/12 02:51:19;;;;;;;3.35;1.20;;;25.70;36.00;;;;;;5051181;28;20029;-68
2023/08/12 02:53:47;;;;;;;3.78;1.38;;;25.20;36.10;;;;;;5053728;28;20031;-68
2023/08/12 02:56:14;;;;;;;5.97;1.38;;;25.30;37.00;;;;;;5051682;28;20033;-68
2023/08/12 02:58:41;;;;;;;3.53;1.45;;;25.70;38.20;;;;;;5051494;28;20033;-68
2023/08/12 03:01:09;;;;;;;2.85;1.10;;;26.10;36.30;;;;;;5045278;28;20025;-70
2023/08/12 03:03:36;;;;;;;3.55;1.17;;;26.40;37.20;;;;;;5044350;28;20079;-69
2023/08/12 03:06:03;;;;;;;4.25;1.67;;;26.70;34.80;;;;;;5053155;28;20032;-69
2023/08/12 03:08:31;;;;;;;2.92;1.58;;;26.50;35.40;;;;;;5052066;28;20040;-69
2023/08/12 03:11:02;;;;;;;3.97;1.42;;;26.40;37.50;;;;;;5047988;28;20020;-70
2023/08/12 03:13:30;;;;;;;4.13;1.20;;;26.70;38.30;;;;;;5046008;28;20052;-70
2023/08/12 03:15:58;;;;;;;3.78;1.52;;;27.00;36.70;;;;;;5053898;28;20029;-70
2023/08/12 03:18:25;;;;;;;3.97;1.42;;;26.90;36.90;;;;;;5052178;28;20116;-69
2023/08/12 03:20:52;;;;;;;3.45;1.52;;;27.10;36.10;;;;;;5048684;28;20024;-70
2023/08/12 03:23:20;;;;;;;4.57;1.85;;;27.60;35.60;;;;;;5037731;28;20033;-70
2023/08/12 03:25:50;;;;;;;5.78;2.03;;;27.20;35.40;;;;;;5054622;28;20035;-68
2023/08/12 03:28:17;;;;;;;5.78;1.73;;;26.80;35.20;;;;;;5060094;28;20087;-68
2023/08/12 03:30:54;;;;;;;4.55;1.85;;;25.90;36.20;;;;;;5044941;28;20137;-69
2023/08/12 03:33:22;;;;;;;5.82;1.80;;;25.30;37.30;;;;;;5051726;28;20067;-69
2023/08/12 03:35:50;;;;;;;4.68;1.90;;;24.70;38.30;;;;;;5056187;28;20044;-69
2023/08/12 03:38:18;;;;;;;6.20;1.35;;;24.50;39.00;;;;;;5048281;28;20099;-68
2023/08/12 03:40:45;;;;;;;6.60;1.88;;;23.90;38.40;;;;;;5044732;28;20504;-67
2023/08/12 03:43:12;;;;;;;4.43;1.75;;;23.70;39.10;;;;;;5056571;28;20025;-69
2023/08/12 03:45:44;;;;;;;4.60;1.25;;;23.30;39.10;;;;;;5047780;28;20498;-68
2023/08/12 03:48:11;;;;;;;4.57;1.85;;;23.20;39.70;;;;;;5043785;28;20183;-68
2023/08/12 03:50:40;;;;;;;7.88;1.63;;;23.10;39.40;;;;;;5054675;28;20065;-69
2023/08/12 03:53:08;;;;;;;5.75;1.40;;;22.80;40.00;;;;;;5051372;28;20166;-69
2023/08/12 03:55:36;;;;;;;6.68;1.85;;;22.80;40.20;;;;;;5047790;28;20066;-68
2023/08/12 03:58:03;;;;;;;5.15;1.38;;;22.80;40.00;;;;;;5057286;28;20103;-68
2023/08/12 04:00:31;;;;;;;3.67;1.40;;;22.80;40.50;;;;;;5054793;28;20154;-68
2023/08/12 04:02:58;;;;;;;6.18;1.17;;;22.80;39.60;;;;;;5053442;28;20104;-69
2023/08/12 04:05:26;;;;;;;8.80;1.65;;;22.90;39.80;;;;;;5046205;28;20223;-69
2023/08/12 04:07:53;;;;;;;4.13;1.10;;;23.00;39.30;;;;;;5051434;28;20041;-69
2023/08/12 04:10:20;;;;;;;2.35;1.30;;;23.30;39.20;;;;;;5052857;28;20025;-69
2023/08/12 04:12:48;;;;;;;2.97;1.20;;;23.30;38.70;;;;;;5049485;28;20469;-69
2023/08/12 04:15:15;;;;;;;2.70;1.30;;;23.20;38.60;;;;;;5048516;28;20056;-70
2023/08/12 04:17:42;;;;;;;3.70;1.20;;;23.00;38.90;;;;;;5038947;28;20056;-69
2023/08/12 04:20:10;;;;;;;3.65;1.20;;;23.00;39.50;;;;;;5052836;28;20032;-69
2023/08/12 04:22:38;;;;;;;4.60;1.20;;;22.80;39.70;;;;;;5047181;28;20029;-70
2023/08/12 04:25:06;;;;;;;5.28;1.67;;;23.30;40.30;;;;;;5053499;28;20028;-69
2023/08/12 04:27:34;;;;;;;3.38;1.63;;;23.30;39.70;;;;;;5047523;28;20041;-69
2023/08/12 04:30:01;;;;;;;3.17;1.33;;;23.40;38.80;;;;;;5042617;28;20037;-69
2023/08/12 04:32:28;;;;;;;2.45;1.20;;;23.00;40.00;;;;;;5052767;28;20029;-69
2023/08/12 04:34:55;;;;;;;4.57;1.67;;;22.80;41.40;;;;;;5052654;28;20036;-69
2023/08/12 04:37:24;;;;;;;4.07;1.38;;;22.70;41.50;;;;;;5050561;28;20478;-69
2023/08/12 04:39:51;;;;;;;7.50;1.10;;;22.70;41.70;;;;;;5052460;28;20060;-69
2023/08/12 04:42:18;;;;;;;3.92;1.58;;;22.70;42.00;;;;;;5044090;28;20390;-69
2023/08/12 04:44:46;;;;;;;4.82;1.38;;;23.20;41.00;;;;;;5054926;28;20342;-69
2023/08/12 04:47:14;;;;;;;6.13;1.40;;;23.10;41.30;;;;;;5054506;28;20033;-69
2023/08/12 04:49:41;;;;;;;4.28;1.45;;;22.90;41.80;;;;;;5056853;28;20056;-69
2023/08/12 04:52:09;;;;;;;5.60;1.25;;;22.90;41.90;;;;;;5055049;28;20048;-71
2023/08/12 04:54:36;;;;;;;4.25;1.55;;;22.70;42.00;;;;;;5047048;28;20040;-69
2023/08/12 04:57:03;;;;;;;6.25;1.48;;;22.70;41.90;;;;;;5051159;28;20024;-69
2023/08/12 04:59:31;;;;;;;6.72;1.60;;;22.50;41.10;;;;;;5043470;28;20037;-69
2023/08/12 05:01:58;;;;;;;3.55;1.27;;;22.70;41.90;;;;;;5056805;28;20425;-70
2023/08/12 05:04:25;;;;;;;5.82;1.88;;;22.90;42.00;;;;;;5049571;28;20385;-69
2023/08/12 05:06:53;;;;;;;3.53;1.10;;;22.70;41.00;;;;;;5058671;28;20078;-68
2023/08/12 05:09:23;;;;;;;4.53;1.58;;;22.70;42.00;;;;;;5058481;28;20111;-70
2023/08/12 05:11:50;;;;;;;5.90;1.20;;;22.80;41.40;;;;;;5056979;28;20044;-69
2023/08/12 05:14:18;;;;;;;5.25;1.30;;;22.80;41.30;;;;;;5052400;28;20033;-69
2023/08/12 05:16:45;;;;;;;5.53;1.30;;;22.70;41.50;;;;;;5054944;28;20442;-70
2023/08/12 05:19:12;;;;;;;4.88;1.70;;;22.80;42.40;;;;;;5058543;28;20051;-70
2023/08/12 05:21:40;;;;;;;3.88;1.40;;;22.90;41.90;;;;;;5048280;28;20522;-70
2023/08/12 05:24:08;;;;;;;5.82;1.20;;;22.80;41.10;;;;;;5048491;28;20033;-68
2023/08/12 05:26:36;;;;;;;5.25;1.75;;;22.50;41.80;;;;;;5054275;28;20068;-69
2023/08/12 05:29:03;;;;;;;5.72;1.30;;;22.20;42.00;;;;;;5057922;28;20107;-68
2023/08/12 05:31:31;;;;;;;6.22;1.63;;;22.10;41.70;;;;;;5047781;28;20025;-69
2023/08/12 05:33:58;;;;;;;1.95;1.08;;;22.20;42.00;;;;;;5053279;28;20036;-69
2023/08/12 05:36:25;;;;;;;7.55;1.65;;;22.50;42.70;;;;;;5056875;28;20033;-69
2023/08/12 05:38:53;;;;;;;5.00;1.40;;;22.40;42.30;;;;;;5050465;28;20032;-69
2023/08/12 05:41:20;;;;;;;5.38;1.25;;;22.10;42.70;;;;;;5056953;28;20028;-69
2023/08/12 05:43:49;;;;;;;3.47;1.02;;;21.90;42.60;;;;;;5051180;28;20108;-70
2023/08/12 05:46:16;;;;;;;2.95;1.42;;;21.70;43.20;;;;;;5059132;28;20025;-68
2023/08/12 05:48:44;;;;;;;5.45;1.60;;;21.50;43.90;;;;;;5054421;28;20110;-70
2023/08/12 05:51:11;;;;;;;7.05;1.65;;;21.90;42.60;;;;;;5047473;28;20123;-69
2023/08/12 05:53:39;;;;;;;4.25;1.67;;;21.80;43.30;;;;;;5060269;28;20465;-69
2023/08/12 05:56:06;;;;;;;4.70;1.50;;;21.80;43.30;;;;;;5049207;28;20025;-68
2023/08/12 05:58:33;;;;;;;5.65;1.27;;;21.60;43.60;;;;;;5060038;28;20541;-69
2023/08/12 06:01:01;;;;;;;5.32;1.13;;;21.40;44.70;;;;;;5054773;28;20032;-70
2023/08/12 06:03:28;;;;;;;4.53;0.90;;;21.20;44.50;;;;;;5050128;28;20127;-68
2023/08/12 06:05:55;;;;;;;5.35;1.63;;;21.20;44.40;;;;;;5046558;28;20108;-69
2023/08/12 06:08:23;;;;;;;5.15;1.48;;;21.30;44.00;;;;;;5057156;28;20055;-69
2023/08/12 06:10:50;;;;;;;5.95;1.55;;;21.30;44.50;;;;;;5054004;28;20102;-67
2023/08/12 06:13:18;;;;;;;2.80;0.90;;;21.30;44.90;;;;;;5047567;28;20033;-67
2023/08/12 06:15:45;;;;;;;4.00;1.30;;;21.10;44.50;;;;;;5045136;28;20032;-68
2023/08/12 06:18:12;;;;;;;4.35;1.45;;;21.00;44.40;;;;;;5060426;28;20029;-70
2023/08/12 06:20:39;;;;;;;2.58;1.20;;;21.00;44.80;;;;;;5048959;28;20033;-68
2023/08/12 06:23:07;;;;;;;4.65;1.27;;;21.00;44.50;;;;;;5051798;28;20029;-69
2023/08/12 06:25:36;;;;;;;3.88;0.95;;;21.00;44.20;;;;;;5049205;28;20025;-70
2023/08/12 06:28:08;;;;;;;9.80;2.90;;;21.00;44.10;;;;;;5049810;28;20583;-69
2023/08/12 06:30:36;;;;;;;5.78;2.17;;;20.90;44.40;;;;;;5050288;28;20405;-69
2023/08/12 06:33:03;;;;;;;5.47;1.15;;;20.70;43.10;;;;;;5053768;28;20098;-69
2023/08/12 06:35:30;;;;;;;5.88;0.77;;;20.70;43.00;;;;;;5050450;28;20023;-69
2023/08/12 06:37:58;;;;;;;2.17;0.73;;;20.70;42.60;;;;;;5059285;28;20027;-68
2023/08/12 06:40:26;;;;;;;3.72;1.20;;;20.70;42.60;;;;;;5055193;28;20017;-68
2023/08/12 06:42:53;;;;;;;7.18;1.35;;;20.50;43.10;;;;;;5055848;28;20032;-69
2023/08/12 06:45:21;;;;;;;3.35;1.10;;;20.40;43.10;;;;;;5053243;28;20074;-69
2023/08/12 06:47:48;;;;;;;4.80;1.10;;;20.30;43.40;;;;;;5042962;28;20053;-70
2023/08/12 06:50:15;;;;;;;2.70;0.90;;;20.10;43.60;;;;;;5052892;28;20028;-69
2023/08/12 06:52:43;;;;;;;2.53;1.00;;;20.00;43.60;;;;;;5052888;28;20040;-68
2023/08/12 06:55:10;;;;;;;3.13;0.90;;;19.90;44.00;;;;;;5046721;28;20029;-68
2023/08/12 06:57:37;;;;;;;2.65;1.00;;;19.80;44.20;;;;;;5055926;28;20052;-68
2023/08/12 07:00:05;;;;;;;5.60;1.67;;;19.70;44.20;;;;;;5054346;28;20029;-69
2023/08/12 07:02:33;;;;;;;4.78;1.35;;;19.60;44.50;;;;;;5057406;28;20679;-68
2023/08/12 07:05:00;;;;;;;2.90;1.30;;;19.60;44.50;;;;;;5050130;28;20036;-69
2023/08/12 07:07:28;;;;;;;2.45;0.80;;;19.60;44.40;;;;;;5048920;28;20013;-68
2023/08/12 07:09:55;;;;;;;2.58;1.13;;;19.60;44.50;;;;;;5051445;28;20049;-69
2023/08/12 07:12:23;;;;;;;3.63;1.27;;;19.50;44.90;;;;;;5054706;28;20031;-67
2023/08/12 07:14:50;;;;;;;2.97;1.67;;;19.40;45.00;;;;;;5049403;28;20029;-71
2023/08/12 07:17:17;;;;;;;5.35;1.45;;;19.30;45.50;;;;;;5047584;28;20033;-68
2023/08/12 07:19:45;;;;;;;5.22;1.60;;;19.20;46.00;;;;;;5052623;28;20362;-68
2023/08/12 07:22:12;;;;;;;4.88;1.38;;;19.10;45.90;;;;;;5048145;28;20021;-68
2023/08/12 07:24:39;;;;;;;4.03;1.65;;;19.20;46.00;;;;;;5038946;28;20440;-69
2023/08/12 07:27:06;;;;;;;4.53;1.50;;;19.10;46.10;;;;;;5049097;28;20044;-68
2023/08/12 07:29:34;;;;;;;4.82;1.40;;;19.00;46.20;;;;;;5033265;28;20500;-67
2023/08/12 07:32:01;;;;;;;4.78;1.50;;;18.80;46.40;;;;;;5036576;28;20025;-69
2023/08/12 07:34:28;;;;;;;4.65;1.60;;;18.80;46.70;;;;;;5034518;28;20074;-68
2023/08/12 07:36:56;;;;;;;3.50;1.60;;;18.70;47.00;;;;;;5029163;28;20033;-68
2023/08/12 07:39:23;;;;;;;6.18;1.73;;;18.80;47.30;;;;;;5036243;28;20342;-69
2023/08/12 07:41:50;;;;;;;3.50;1.20;;;18.70;47.10;;;;;;5028693;28;20119;-68
2023/08/12 07:44:18;;;;;;;10.57;2.08;;;18.60;47.20;;;;;;5032650;28;20080;-67
2023/08/12 07:46:45;;;;;;;6.95;2.47;;;18.60;47.20;;;;;;5047276;28;20022;-68
2023/08/12 07:49:12;;;;;;;7.72;2.45;;;18.50;47.40;;;;;;5030345;28;20144;-68
2023/08/12 07:51:40;;;;;;;5.40;2.20;;;18.50;47.50;;;;;;5034085;28;20173;-70
2023/08/12 07:54:07;;;;;;;4.60;1.70;;;18.50;47.90;;;;;;5041030;28;20048;-68
2023/08/12 07:56:34;;;;;;;3.85;1.70;;;18.40;47.90;;;;;;5049298;28;20025;-69
2023/08/12 07:59:03;;;;;;;8.57;1.75;;;18.40;47.90;;;;;;5050209;28;20013;-68
2023/08/12 08:01:30;;;;;;;5.05;1.40;;;18.40;48.50;;;;;;5051610;28;20029;-68
2023/08/12 08:03:57;;;;;;;5.80;1.58;;;18.30;48.30;;;;;;5051155;28;20016;-68
2023/08/12 08:06:25;;;;;;;3.15;1.10;;;18.30;48.70;;;;;;5052202;28;20515;-69
2023/08/12 08:08:52;;;;;;;3.00;1.20;;;18.40;48.40;;;;;;5051976;28;20040;-68
2023/08/12 08:11:19;;;;;;;3.05;1.08;;;18.30;48.90;;;;;;5048900;28;20365;-68
2023/08/12 08:13:47;;;;;;;4.93;1.30;;;18.30;49.10;;;;;;5047386;28;20028;-67
2023/08/12 08:16:14;;;;;;;3.60;1.25;;;18.40;49.30;;;;;;5054497;28;20036;-68
2023/08/12 08:18:41;;;;;;;3.10;1.20;;;18.30;49.50;;;;;;5053217;28;20031;-68
2023/08/12 08:21:09;;;;;;;5.03;1.25;;;18.30;49.80;;;;;;5055042;28;20458;-68
2023/08/12 08:23:36;;;;;;;5.88;1.33;;;18.30;50.30;;;;;;5060958;28;20488;-69
2023/08/12 08:26:03;;;;;;;4.10;1.17;;;18.20;50.50;;;;;;5058393;28;20056;-68
2023/08/12 08:28:31;;;;;;;3.05;1.08;;;18.20;50.60;;;;;;5058532;28;20044;-68
2023/08/12 08:30:58;;;;;;;2.45;1.00;;;18.10;50.70;;;;;;5053770;28;20021;-68
2023/08/12 08:33:28;;;;;;;6.28;1.70;;;18.10;50.20;;;;;;5050048;28;20017;-68
2023/08/12 08:35:56;;;;;;;4.93;1.27;;;18.10;50.20;;;;;;5054013;28;20085;-68
2023/08/12 08:38:23;;;;;;;6.60;1.85;;;18.00;50.20;;;;;;5050114;28;20526;-68
2023/08/12 08:40:51;;;;;;;3.78;1.00;;;17.90;51.30;;;;;;5058001;28;20028;-68
2023/08/12 08:43:22;;;;;;;3.03;1.10;;;17.90;51.50;;;;;;5058137;28;20106;-69
2023/08/12 08:45:55;;;;;;;5.45;1.27;;;17.90;50.50;;;;;;5061565;28;20067;-69
2023/08/12 08:48:22;;;;;;;6.32;1.67;;;17.90;51.40;;;;;;5056437;28;20123;-68
2023/08/12 08:50:51;;;;;;;6.63;1.52;;;17.80;50.90;;;;;;5058559;28;20025;-69
2023/08/12 08:53:19;;;;;;;3.30;1.20;;;17.80;51.40;;;;;;5056385;28;20052;-68
2023/08/12 08:55:48;;;;;;;3.30;1.40;;;17.70;50.80;;;;;;5059174;28;20024;-68
2023/08/12 08:58:15;;;;;;;3.38;1.42;;;17.70;51.50;;;;;;5049586;28;20035;-67
2023/08/12 09:00:43;;;;;;;4.80;1.40;;;17.70;51.70;;;;;;5052081;28;20108;-68
2023/08/12 09:03:12;;;;;;;3.53;1.48;;;17.60;51.50;;;;;;5054916;28;20479;-68
2023/08/12 09:05:41;;;;;;;3.97;1.48;;;17.60;51.80;;;;;;5055774;28;20033;-68
2023/08/12 09:08:10;;;;;;;3.70;1.55;;;17.50;52.00;;;;;;5059805;28;20473;-70
2023/08/12 09:10:40;;;;;;;5.45;1.67;;;17.50;52.00;;;;;;5057098;28;20029;-70
2023/08/12 09:13:08;;;;;;;6.20;1.80;;;17.50;52.70;;;;;;5035117;28;20723;-69
2023/08/12 09:15:36;;;;;;;8.05;1.63;;;17.40;51.90;;;;;;5045595;28;20020;-68
2023/08/12 09:18:06;;;;;;;3.85;1.48;;;17.40;52.10;;;;;;5047077;28;20033;-68
2023/08/12 09:20:35;;;;;;;8.80;4.28;;;17.40;51.70;;;;;;5040318;28;20075;-68
2023/08/12 09:23:03;;;;;;;10.32;3.47;;;17.40;51.40;;;;;;5036346;28;20028;-68
2023/08/12 09:25:35;;;;;;;8.98;2.10;;;17.30;51.50;;;;;;5051095;28;20028;-68
2023/08/12 09:28:02;;;;;;;3.78;1.75;;;17.20;51.80;;;;;;5039549;28;20052;-69
2023/08/12 09:30:33;;;;;;;5.00;1.65;;;17.00;52.00;;;;;;5043497;28;20020;-68
2023/08/12 09:33:08;;;;;;;4.25;1.65;;;17.00;52.60;;;;;;5044656;28;21882;-68
2023/08/12 09:35:40;;;;;;;7.88;2.00;;;16.90;52.50;;;;;;5045933;28;20478;-68
2023/08/12 09:38:12;;;;;;;6.43;1.90;;;17.00;52.20;;;;;;5044990;28;20124;-68
2023/08/12 09:40:40;;;;;;;6.72;2.22;;;17.00;52.90;;;;;;5032872;28;20076;-68
2023/08/12 09:43:08;;;;;;;9.98;3.50;;;16.90;53.10;;;;;;5032676;28;20060;-69
2023/08/12 09:45:36;;;;;;;28.00;15.23;;;17.00;53.60;;;;;;5036415;28;20036;-68
2023/08/12 09:48:04;;;;;;;52.00;35.83;;;16.90;54.10;;;;;;5035207;28;20045;-68
2023/08/12 09:50:31;;;;;;;31.48;20.85;;;16.90;54.30;;;;;;5047566;28;20029;-70
2023/08/12 09:53:00;;;;;;;21.90;13.98;;;16.70;54.70;;;;;;5045341;28;20518;-68
2023/08/12 09:55:28;;;;;;;18.35;10.23;;;16.50;55.00;;;;;;5051398;28;20371;-68
2023/08/12 09:57:56;;;;;;;7.63;4.65;;;16.40;55.70;;;;;;5049748;28;20497;-69
2023/08/12 10:00:25;;;;;;;7.90;3.53;;;16.20;55.80;;;;;;5048478;28;20458;-68
2023/08/12 10:02:53;;;;;;;9.57;2.30;;;16.20;55.90;;;;;;5045528;28;20109;-68
2023/08/12 10:05:26;;;;;;;4.88;1.52;;;16.10;55.90;;;;;;5046409;28;20025;-68
2023/08/12 10:07:54;;;;;;;4.75;1.45;;;16.00;55.70;;;;;;5052979;28;20437;-68
2023/08/12 10:10:25;;;;;;;4.55;1.33;;;16.00;55.70;;;;;;5054728;28;20036;-68
2023/08/12 10:12:53;;;;;;;4.25;1.10;;;15.90;56.00;;;;;;5049205;28;20028;-67
2023/08/12 10:15:22;;;;;;;7.25;1.52;;;15.90;56.20;;;;;;5053212;28;20588;-68
2023/08/12 10:17:52;;;;;;;4.68;1.30;;;15.90;56.10;;;;;;5051038;28;20034;-68
2023/08/12 10:20:24;;;;;;;3.58;1.08;;;15.90;56.00;;;;;;5056702;28;20111;-68
2023/08/12 10:22:54;;;;;;;4.60;1.10;;;15.80;56.00;;;;;;5043447;28;20033;-68
2023/08/12 10:25:22;;;;;;;2.95;1.05;;;15.80;55.90;;;;;;5049714;28;20036;-68
2023/08/12 10:27:50;;;;;;;5.57;1.40;;;15.80;55.80;;;;;;5034532;28;20545;-68
2023/08/12 10:30:17;;;;;;;3.42;0.93;;;15.80;55.80;;;;;;5038731;28;20033;-68
2023/08/12 10:32:47;;;;;;;5.03;0.75;;;15.80;55.60;;;;;;5034662;28;20538;-68
2023/08/12 10:35:15;;;;;;;2.65;0.90;;;15.80;55.70;;;;;;5036283;28;20044;-68
2023/08/12 10:37:42;;;;;;;5.05;1.30;;;15.70;55.60;;;;;;5072317;28;20029;-67
2023/08/12 10:40:22;;;;;;;3.90;1.10;;;15.70;55.70;;;;;;5061547;28;20073;-68
2023/08/12 10:42:50;;;;;;;3.55;1.58;;;15.60;56.00;;;;;;5052774;28;20060;-68
2023/08/12 10:45:19;;;;;;;7.00;1.30;;;15.70;56.00;;;;;;5059661;28;20078;-68
2023/08/12 10:48:19;;;;;;;6.65;1.15;;;15.70;55.80;;;;;;5057917;28;20131;-67
2023/08/12 10:50:50;;;;;;;8.32;1.63;;;15.70;56.10;;;;;;5043804;28;20028;-67
2023/08/12 10:53:32;;;;;;;4.47;1.25;;;15.80;55.80;;;;;;5056606;28;20119;-67
2023/08/12 10:56:03;;;;;;;3.15;1.48;;;15.70;56.00;;;;;;5056893;28;20039;-67
2023/08/12 10:58:37;;;;;;;5.30;2.05;;;15.60;56.70;;;;;;5059074;28;20486;-68
2023/08/12 11:01:09;;;;;;;5.82;1.70;;;15.70;57.00;;;;;;5052506;28;20033;-67
2023/08/12 11:03:36;;;;;;;5.07;2.22;;;15.90;56.80;;;;;;5046631;28;20544;-67
2023/08/12 11:06:03;;;;;;;8.13;2.33;;;15.90;56.60;;;;;;5052705;28;20077;-67
2023/08/12 11:08:31;;;;;;;9.05;2.65;;;15.80;56.90;;;;;;5055224;28;20131;-66
2023/08/12 11:11:01;;;;;;;5.60;2.92;;;15.80;57.60;;;;;;5050499;28;20033;-67
2023/08/12 11:13:30;;;;;;;7.43;2.10;;;15.60;58.10;;;;;;5039556;28;20027;-67
2023/08/12 11:16:10;;;;;;;5.40;1.58;;;15.60;58.00;;;;;;5046300;28;20028;-68
2023/08/12 11:18:38;;;;;;;6.18;1.95;;;15.30;58.20;;;;;;5039000;28;20041;-67
2023/08/12 11:21:05;;;;;;;5.80;1.88;;;15.10;59.40;;;;;;5032070;28;20029;-68
2023/08/12 11:23:34;;;;;;;5.20;1.65;;;14.90;60.00;;;;;;5029645;28;20405;-67
2023/08/12 11:26:03;;;;;;;4.47;1.38;;;14.80;60.50;;;;;;5031504;28;20041;-68
2023/08/12 11:28:31;;;;;;;3.85;1.40;;;14.60;60.40;;;;;;5033688;28;20044;-68
2023/08/12 11:30:59;;;;;;;3.60;1.15;;;14.50;60.80;;;;;;5032910;28;20036;-68
2023/08/12 11:33:26;;;;;;;7.05;1.38;;;14.50;61.30;;;;;;5036305;28;20367;-68
2023/08/12 11:35:54;;;;;;;4.40;0.90;;;14.40;61.10;;;;;;5036621;28;20474;-68
2023/08/12 11:38:21;;;;;;;2.17;1.10;;;14.50;61.10;;;;;;5029277;28;20032;-66
2023/08/12 11:40:51;;;;;;;3.53;0.93;;;14.50;61.00;;;;;;5048418;28;20386;-66
2023/08/12 11:43:22;;;;;;;3.42;0.88;;;14.50;61.20;;;;;;5049649;28;20017;-66
2023/08/12 11:45:50;;;;;;;4.97;1.23;;;14.40;62.10;;;;;;5043488;28;20053;-67
2023/08/12 11:48:17;;;;;;;4.43;1.20;;;14.40;61.70;;;;;;5051508;28;20033;-68
2023/08/12 11:50:45;;;;;;;10.00;1.52;;;14.40;62.00;;;;;;5050413;28;20025;-68
2023/08/12 11:53:12;;;;;;;5.70;1.52;;;14.30;62.60;;;;;;5046993;28;20410;-67
2023/08/12 11:55:40;;;;;;;7.15;1.30;;;14.50;62.40;;;;;;5050962;28;20492;-67
2023/08/12 11:58:07;;;;;;;4.03;1.08;;;14.30;62.20;;;;;;5057406;28;20312;-67
2023/08/12 12:00:35;;;;;;;5.57;1.38;;;14.20;62.90;;;;;;5050430;28;20352;-67
2023/08/12 12:03:03;;;;;;;4.28;1.15;;;14.00;63.50;;;;;;5053908;28;20068;-67
2023/08/12 12:05:31;;;;;;;6.65;1.33;;;14.00;64.10;;;;;;5054811;28;20025;-66
2023/08/12 12:08:00;;;;;;;3.30;1.05;;;14.10;64.00;;;;;;5055907;28;20033;-67
2023/08/12 12:10:30;;;;;;;4.63;1.55;;;14.00;63.40;;;;;;5053553;28;20017;-67
2023/08/12 12:12:58;;;;;;;5.30;1.35;;;14.00;63.80;;;;;;5057253;28;20504;-67
2023/08/12 12:15:25;;;;;;;5.47;1.33;;;14.00;64.20;;;;;;5042870;28;20021;-67
2023/08/12 12:17:52;;;;;;;6.28;1.42;;;14.00;63.90;;;;;;5044431;28;20017;-69
2023/08/12 12:20:21;;;;;;;4.00;1.30;;;14.00;64.20;;;;;;5048835;28;20043;-67
2023/08/12 12:22:49;;;;;;;3.78;1.30;;;14.10;64.20;;;;;;5051415;28;20032;-67
2023/08/12 12:25:21;;;;;;;8.95;1.70;;;14.00;63.50;;;;;;5055780;28;20029;-67
2023/08/12 12:27:48;;;;;;;4.15;1.50;;;14.10;63.80;;;;;;5050680;28;20410;-68
2023/08/12 12:30:17;;;;;;;9.75;1.88;;;14.00;63.70;;;;;;5049156;28;20132;-67
2023/08/12 12:32:45;;;;;;;5.78;2.35;;;14.00;64.30;;;;;;5055957;28;20025;-67
2023/08/12 12:35:12;;;;;;;11.45;5.22;;;14.00;64.10;;;;;;5050625;28;20132;-65
2023/08/12 12:37:40;;;;;;;11.85;5.00;;;13.90;64.70;;;;;;5050671;28;20064;-67
2023/08/12 12:40:09;;;;;;;13.93;6.03;;;13.90;65.20;;;;;;5047452;28;20033;-67
2023/08/12 12:42:38;;;;;;;11.43;3.90;;;13.90;65.70;;;;;;5050152;28;20031;-67
2023/08/12 12:45:09;;;;;;;10.05;2.65;;;14.00;65.20;;;;;;5053839;28;20024;-69
2023/08/12 12:47:37;;;;;;;5.88;1.90;;;14.00;64.40;;;;;;5052321;28;20560;-67
2023/08/12 12:50:05;;;;;;;8.18;2.30;;;14.00;64.60;;;;;;5050488;28;20040;-66